Webcam Flughafen St.Gallen-Altenrhein

Live-Bilder und Zeitraffer LSZR / ACH.

 

Live aus Altenrhein
LIVE
LSZR 201420Z 28006KT 7000 NSC 21/16 Q1014 NOSIG RMK G
Zeitraffer heute
2020-09-20 00:13:56
LSZR 192150Z AUTO 15001KT 4000 BR NSC 15/14 Q1016